Super Servant 4 — PJPO — position and weather

sailwx.info

Track history (hours):
 
Tides and Currents Weather Stations Pressure Air Temp Water Temp Dewpoint Dewpoint Depression Visibility Wind Speed Wind Dir Waves Ship Positions

Super Servant 4

Last reported at 2018-Apr-14 06:03 UTC. Time now 2018-Apr-20 02:53 UTC.
Position N 35°58' W 005°38'.

Length 139 m; beam 32 m.

Type: Cargo ship. MMSI: 306157000.

Date/timePositionNaut miles runAvg speedWind from/ knotsBaromVisibWave heightAir tempDewpointWater temp
2018-Apr-14 06:03N 35°58' W 005°38'1 9.3
2018-Apr-14 05:56N 35°58' W 005°37'4 8.6
2018-Apr-14 05:28N 35°59' W 005°32'4 8.7
2018-Apr-14 05:01N 36°00' W 005°28'4 8.9
2018-Apr-14 04:30N 36°02' W 005°22'5 9.5
2018-Apr-14 04:00N 36°03' W 005°17'  
2018-Apr-11 02:29N 37°02' W 001°09'810.5
2018-Apr-11 01:46N 37°07' W 001°01'310.3
2018-Apr-11 01:27N 37°09' W 000°58'510.0
2018-Apr-11 00:57N 37°11' W 000°53'510.1
2018-Apr-11 00:30N 37°14' W 000°48'5 9.9
2018-Apr-10 23:59N 37°17' W 000°43'6 9.5
2018-Apr-10 23:24N 37°20' W 000°37'7 9.2
2018-Apr-10 22:38N 37°24' W 000°30'2 9.0
2018-Apr-10 22:24N 37°25' W 000°28'8 9.6
2018-Apr-10 21:35N 37°30' W 000°20'1 9.6
2018-Apr-10 21:30N 37°31' W 000°19'5 9.3
2018-Apr-10 21:00N 37°34' W 000°16'5 9.2
2018-Apr-10 20:25N 37°39' W 000°12'4 8.9
2018-Apr-10 20:00N 37°42' W 000°09'18510.2
2018-Apr-10 01:55N 40°01' E 002°28'411.0
2018-Apr-10 01:30N 40°03' E 002°33'510.8
2018-Apr-10 01:01N 40°07' E 002°38'711.1
2018-Apr-10 00:22N 40°12' E 002°45'1111.2
2018-Apr-09 23:26N 40°19' E 002°55'511.2
2018-Apr-09 23:00N 40°22' E 003°00'8512.0
2018-Apr-09 15:56N 41°18' E 004°24'15912.2
2018-Apr-09 02:55N 43°04' E 007°03'512.9
2018-Apr-09 02:30N 43°07' E 007°09'812.9
2018-Apr-09 01:55N 43°12' E 007°17'512.7
2018-Apr-09 01:29N 43°15' E 007°23'612.8
2018-Apr-09 01:01N 43°20' E 007°29'813.0
2018-Apr-09 00:25N 43°25' E 007°37'4113.2
2018-Apr-08 21:16N 43°53' E 008°19'410.8
2018-Apr-08 20:56N 43°56' E 008°21'4 9.9
2018-Apr-08 20:30N 43°60' E 008°24'5 9.6
2018-Apr-08 20:00N 44°04' E 008°28'510.1
2018-Apr-08 19:30N 44°08' E 008°31'510.4
2018-Apr-08 19:00N 44°13' E 008°35'510.2
2018-Apr-08 18:31N 44°17' E 008°39'510.5
2018-Apr-08 18:01N 44°22' E 008°42'4 8.9
2018-Apr-08 17:31N 44°25' E 008°46'0 0.3
2018-Apr-08 16:58N 44°25' E 008°47'0 0.0
2018-Apr-08 16:28N 44°25' E 008°47'0 0.0
2018-Apr-08 15:58N 44°25' E 008°47'0 0.0
2018-Apr-08 15:28N 44°25' E 008°47'0 0.0
2018-Apr-08 14:58N 44°25' E 008°47'0 0.0
2018-Apr-08 14:25N 44°25' E 008°47'0 0.0
2018-Apr-08 13:58N 44°25' E 008°47'0 0.0
2018-Apr-08 13:28N 44°25' E 008°47'0 0.0
2018-Apr-08 12:58N 44°25' E 008°47'0 0.0
2018-Apr-08 12:28N 44°25' E 008°47'0 0.0
2018-Apr-08 11:58N 44°25' E 008°47'0 0.0
2018-Apr-08 11:25N 44°25' E 008°47'0 0.0
2018-Apr-08 10:55N 44°25' E 008°47'0 0.0
2018-Apr-08 10:28N 44°25' E 008°47'0 0.0
2018-Apr-08 09:58N 44°25' E 008°47'0 0.0
2018-Apr-08 09:28N 44°25' E 008°47'0 0.0
2018-Apr-08 08:58N 44°25' E 008°47'0 0.0
2018-Apr-08 08:28N 44°25' E 008°47'0 0.0
2018-Apr-08 07:58N 44°25' E 008°47'0 0.0
2018-Apr-08 07:28N 44°25' E 008°47'0 0.0
2018-Apr-08 06:58N 44°25' E 008°47'0 0.0
2018-Apr-08 06:28N 44°25' E 008°47'0 0.0
2018-Apr-08 05:58N 44°25' E 008°47'0 0.0
2018-Apr-08 05:28N 44°25' E 008°47'0 0.0
2018-Apr-08 04:58N 44°25' E 008°47'0 0.0
2018-Apr-08 04:28N 44°25' E 008°47'0 0.0
2018-Apr-08 03:58N 44°25' E 008°47'0 0.0
2018-Apr-08 03:28N 44°25' E 008°47'0 0.0
2018-Apr-08 02:58N 44°25' E 008°47'0 0.0
2018-Apr-08 02:28N 44°25' E 008°47'0 0.0
2018-Apr-08 01:58N 44°25' E 008°47'0 0.0
2018-Apr-08 01:28N 44°25' E 008°47'0 0.0
2018-Apr-08 00:58N 44°25' E 008°47'0 0.0
2018-Apr-08 00:28N 44°25' E 008°47'0 0.0
2018-Apr-07 23:58N 44°25' E 008°47'0 0.0
2018-Apr-07 23:28N 44°25' E 008°47'0 0.0
2018-Apr-07 22:58N 44°25' E 008°47'0 0.0
2018-Apr-07 22:28N 44°25' E 008°47'0 0.0
2018-Apr-07 21:58N 44°25' E 008°47'0 0.0
2018-Apr-07 21:28N 44°25' E 008°47'0 0.0
2018-Apr-07 20:58N 44°25' E 008°47'0 0.0
2018-Apr-07 20:28N 44°25' E 008°47'0 0.0
2018-Apr-07 19:58N 44°25' E 008°47'0 0.0
2018-Apr-07 19:28N 44°25' E 008°47'0 0.0
2018-Apr-07 18:58N 44°25' E 008°47'0 0.0
2018-Apr-07 18:28N 44°25' E 008°47'0 0.0
2018-Apr-07 17:58N 44°25' E 008°47'0 0.0
2018-Apr-07 17:28N 44°25' E 008°47'0 0.0
2018-Apr-07 16:58N 44°25' E 008°47'0 0.0
2018-Apr-07 16:28N 44°25' E 008°47'0 0.0
2018-Apr-07 15:58N 44°25' E 008°47'0 0.0
2018-Apr-07 15:28N 44°25' E 008°47'0 0.0
2018-Apr-07 14:58N 44°25' E 008°47'0 0.0
2018-Apr-07 14:28N 44°25' E 008°47'0 0.0
2018-Apr-07 13:58N 44°25' E 008°47'0 0.0
2018-Apr-07 13:28N 44°25' E 008°47'0 0.0
2018-Apr-07 12:58N 44°25' E 008°47'0 0.0
2018-Apr-07 12:28N 44°25' E 008°47'0 0.0
2018-Apr-07 11:55N 44°25' E 008°47'0 0.0
2018-Apr-07 11:28N 44°25' E 008°47'0 0.0
2018-Apr-07 10:58N 44°25' E 008°47'0 0.0
2018-Apr-07 10:22N 44°25' E 008°47'0 0.0
2018-Apr-07 09:58N 44°25' E 008°47'0 0.0
2018-Apr-07 09:28N 44°25' E 008°47'0 0.0
2018-Apr-07 08:58N 44°25' E 008°47'0 0.0
2018-Apr-07 08:28N 44°25' E 008°47'0 0.0
2018-Apr-07 07:58N 44°25' E 008°47'0 0.0
2018-Apr-07 07:28N 44°25' E 008°47'0 0.4
2018-Apr-07 07:00N 44°25' E 008°46'2 4.2
2018-Apr-07 06:30N 44°24' E 008°44'1 1.0
2018-Apr-07 06:00N 44°23' E 008°44'3 5.9
2018-Apr-07 05:30N 44°20' E 008°43'5 9.1
2018-Apr-07 05:00N 44°16' E 008°45'5 9.8
2018-Apr-07 04:30N 44°12' E 008°48'510.9
2018-Apr-07 04:00N 44°07' E 008°51'611.0
2018-Apr-07 03:30N 44°02' E 008°55'611.3
2018-Apr-07 03:00N 43°56' E 008°57'1 2.6
2018-Apr-07 02:30N 43°55' E 008°57'5 9.6
2018-Apr-07 02:00N 43°50' E 008°55'510.8
2018-Apr-07 01:30N 43°47' E 008°50'510.8
2018-Apr-07 01:00N 43°43' E 008°44'510.7
2018-Apr-07 00:30N 43°40' E 008°39'510.7
2018-Apr-07 00:00N 43°36' E 008°33'510.8
2018-Apr-06 23:30N 43°33' E 008°27'510.7
2018-Apr-06 23:00N 43°30' E 008°21'510.6
2018-Apr-06 22:30N 43°26' E 008°16'510.6
2018-Apr-06 22:00N 43°23' E 008°10'510.9
2018-Apr-06 21:30N 43°19' E 008°05'611.0
2018-Apr-06 21:00N 43°16' E 007°59'511.0
2018-Apr-06 20:30N 43°12' E 007°53'611.0
2018-Apr-06 20:00N 43°09' E 007°47'611.2
2018-Apr-06 19:30N 43°05' E 007°41'611.8
2018-Apr-06 19:00N 43°01' E 007°35'1111.9
2018-Apr-06 18:07N 42°55' E 007°24'411.7
2018-Apr-06 17:47N 42°52' E 007°20'311.9
2018-Apr-06 17:30N 42°50' E 007°17'712.0
2018-Apr-06 16:54N 42°45' E 007°09'512.1
2018-Apr-06 16:30N 42°42' E 007°04'612.2
2018-Apr-06 16:00N 42°38' E 006°58'612.2
2018-Apr-06 15:30N 42°34' E 006°52'612.4
2018-Apr-06 15:00N 42°30' E 006°46'712.2
2018-Apr-06 14:25N 42°25' E 006°38'512.0
2018-Apr-06 14:00N 42°22' E 006°33'1011.9
2018-Apr-06 13:11N 42°16' E 006°23'19112.1
2018-Apr-05 21:21N 40°21' E 002°60'1012.8
2018-Apr-05 20:37N 40°14' E 002°51'113.2
2018-Apr-05 20:30N 40°13' E 002°49'713.0
2018-Apr-05 20:00N 40°09' E 002°43'612.9
2018-Apr-05 19:30N 40°04' E 002°37'8912.4
2018-Apr-05 12:17N 39°06' E 001°09'10812.1
2018-Apr-05 03:24N 37°39' W 000°12'612.5
2018-Apr-05 02:57N 37°35' W 000°16'612.6
2018-Apr-05 02:30N 37°30' W 000°20'913.0
2018-Apr-05 01:49N 37°24' W 000°29'612.9
2018-Apr-05 01:20N 37°21' W 000°35'512.6
2018-Apr-05 00:59N 37°18' W 000°40'612.4
2018-Apr-05 00:30N 37°15' W 000°46'612.3
2018-Apr-04 23:59N 37°11' W 000°52'712.3
2018-Apr-04 23:23N 37°06' W 000°60'512.5
2018-Apr-04 22:58N 37°03' W 001°05'20812.3
2018-Apr-04 06:07N 35°59' W 005°11'  
Track history (hours):
 
Tides and Currents Weather Stations Pressure Air Temp Water Temp Dewpoint Dewpoint Depression Visibility Wind Speed Wind Dir Waves Ship Positions

Super Servant 4

Last reported at 2018-Apr-14 06:03 UTC. Time now 2018-Apr-20 02:53 UTC.
Position N 35°58' W 005°38'.

Length 139 m; beam 32 m.

Type: Cargo ship. MMSI: 306157000.

Date/timePositionNaut miles runAvg speedWind from/ knotsBaromVisibWave heightAir tempDewpointWater temp
2018-Apr-14 06:03N 35°58' W 005°38'1 9.3
2018-Apr-14 05:56N 35°58' W 005°37'4 8.6
2018-Apr-14 05:28N 35°59' W 005°32'4 8.7
2018-Apr-14 05:01N 36°00' W 005°28'4 8.9
2018-Apr-14 04:30N 36°02' W 005°22'5 9.5
2018-Apr-14 04:00N 36°03' W 005°17'  
2018-Apr-11 02:29N 37°02' W 001°09'810.5
2018-Apr-11 01:46N 37°07' W 001°01'310.3
2018-Apr-11 01:27N 37°09' W 000°58'510.0
2018-Apr-11 00:57N 37°11' W 000°53'510.1
2018-Apr-11 00:30N 37°14' W 000°48'5 9.9
2018-Apr-10 23:59N 37°17' W 000°43'6 9.5
2018-Apr-10 23:24N 37°20' W 000°37'7 9.2
2018-Apr-10 22:38N 37°24' W 000°30'2 9.0
2018-Apr-10 22:24N 37°25' W 000°28'8 9.6
2018-Apr-10 21:35N 37°30' W 000°20'1 9.6
2018-Apr-10 21:30N 37°31' W 000°19'5 9.3
2018-Apr-10 21:00N 37°34' W 000°16'5 9.2
2018-Apr-10 20:25N 37°39' W 000°12'4 8.9
2018-Apr-10 20:00N 37°42' W 000°09'18510.2
2018-Apr-10 01:55N 40°01' E 002°28'411.0
2018-Apr-10 01:30N 40°03' E 002°33'510.8
2018-Apr-10 01:01N 40°07' E 002°38'711.1
2018-Apr-10 00:22N 40°12' E 002°45'1111.2
2018-Apr-09 23:26N 40°19' E 002°55'511.2
2018-Apr-09 23:00N 40°22' E 003°00'8512.0
2018-Apr-09 15:56N 41°18' E 004°24'15912.2
2018-Apr-09 02:55N 43°04' E 007°03'512.9
2018-Apr-09 02:30N 43°07' E 007°09'812.9
2018-Apr-09 01:55N 43°12' E 007°17'512.7
2018-Apr-09 01:29N 43°15' E 007°23'612.8
2018-Apr-09 01:01N 43°20' E 007°29'813.0
2018-Apr-09 00:25N 43°25' E 007°37'4113.2
2018-Apr-08 21:16N 43°53' E 008°19'410.8
2018-Apr-08 20:56N 43°56' E 008°21'4 9.9
2018-Apr-08 20:30N 43°60' E 008°24'5 9.6
2018-Apr-08 20:00N 44°04' E 008°28'510.1
2018-Apr-08 19:30N 44°08' E 008°31'510.4
2018-Apr-08 19:00N 44°13' E 008°35'510.2
2018-Apr-08 18:31N 44°17' E 008°39'510.5
2018-Apr-08 18:01N 44°22' E 008°42'4 8.9
2018-Apr-08 17:31N 44°25' E 008°46'0 0.3
2018-Apr-08 16:58N 44°25' E 008°47'0 0.0
2018-Apr-08 16:28N 44°25' E 008°47'0 0.0
2018-Apr-08 15:58N 44°25' E 008°47'0 0.0
2018-Apr-08 15:28N 44°25' E 008°47'0 0.0
2018-Apr-08 14:58N 44°25' E 008°47'0 0.0
2018-Apr-08 14:25N 44°25' E 008°47'0 0.0
2018-Apr-08 13:58N 44°25' E 008°47'0 0.0
2018-Apr-08 13:28N 44°25' E 008°47'0 0.0
2018-Apr-08 12:58N 44°25' E 008°47'0 0.0
2018-Apr-08 12:28N 44°25' E 008°47'0 0.0
2018-Apr-08 11:58N 44°25' E 008°47'0 0.0
2018-Apr-08 11:25N 44°25' E 008°47'0 0.0
2018-Apr-08 10:55N 44°25' E 008°47'0 0.0
2018-Apr-08 10:28N 44°25' E 008°47'0 0.0
2018-Apr-08 09:58N 44°25' E 008°47'0 0.0
2018-Apr-08 09:28N 44°25' E 008°47'0 0.0
2018-Apr-08 08:58N 44°25' E 008°47'0 0.0
2018-Apr-08 08:28N 44°25' E 008°47'0 0.0
2018-Apr-08 07:58N 44°25' E 008°47'0 0.0
2018-Apr-08 07:28N 44°25' E 008°47'0 0.0
2018-Apr-08 06:58N 44°25' E 008°47'0 0.0
2018-Apr-08 06:28N 44°25' E 008°47'0 0.0
2018-Apr-08 05:58N 44°25' E 008°47'0 0.0
2018-Apr-08 05:28N 44°25' E 008°47'0 0.0
2018-Apr-08 04:58N 44°25' E 008°47'0 0.0
2018-Apr-08 04:28N 44°25' E 008°47'0 0.0
2018-Apr-08 03:58N 44°25' E 008°47'0 0.0
2018-Apr-08 03:28N 44°25' E 008°47'0 0.0
2018-Apr-08 02:58N 44°25' E 008°47'0 0.0
2018-Apr-08 02:28N 44°25' E 008°47'0 0.0
2018-Apr-08 01:58N 44°25' E 008°47'0 0.0
2018-Apr-08 01:28N 44°25' E 008°47'0 0.0
2018-Apr-08 00:58N 44°25' E 008°47'0 0.0
2018-Apr-08 00:28N 44°25' E 008°47'0 0.0
2018-Apr-07 23:58N 44°25' E 008°47'0 0.0
2018-Apr-07 23:28N 44°25' E 008°47'0 0.0
2018-Apr-07 22:58N 44°25' E 008°47'0 0.0
2018-Apr-07 22:28N 44°25' E 008°47'0 0.0
2018-Apr-07 21:58N 44°25' E 008°47'0 0.0
2018-Apr-07 21:28N 44°25' E 008°47'0 0.0
2018-Apr-07 20:58N 44°25' E 008°47'0 0.0
2018-Apr-07 20:28N 44°25' E 008°47'0 0.0
2018-Apr-07 19:58N 44°25' E 008°47'0 0.0
2018-Apr-07 19:28N 44°25' E 008°47'0 0.0
2018-Apr-07 18:58N 44°25' E 008°47'0 0.0
2018-Apr-07 18:28N 44°25' E 008°47'0 0.0
2018-Apr-07 17:58N 44°25' E 008°47'0 0.0
2018-Apr-07 17:28N 44°25' E 008°47'0 0.0
2018-Apr-07 16:58N 44°25' E 008°47'0 0.0
2018-Apr-07 16:28N 44°25' E 008°47'0 0.0
2018-Apr-07 15:58N 44°25' E 008°47'0 0.0
2018-Apr-07 15:28N 44°25' E 008°47'0 0.0
2018-Apr-07 14:58N 44°25' E 008°47'0 0.0
2018-Apr-07 14:28N 44°25' E 008°47'0 0.0
2018-Apr-07 13:58N 44°25' E 008°47'0 0.0
2018-Apr-07 13:28N 44°25' E 008°47'0 0.0
2018-Apr-07 12:58N 44°25' E 008°47'0 0.0
2018-Apr-07 12:28N 44°25' E 008°47'0 0.0
2018-Apr-07 11:55N 44°25' E 008°47'0 0.0
2018-Apr-07 11:28N 44°25' E 008°47'0 0.0
2018-Apr-07 10:58N 44°25' E 008°47'0 0.0
2018-Apr-07 10:22N 44°25' E 008°47'0 0.0
2018-Apr-07 09:58N 44°25' E 008°47'0 0.0
2018-Apr-07 09:28N 44°25' E 008°47'0 0.0
2018-Apr-07 08:58N 44°25' E 008°47'0 0.0
2018-Apr-07 08:28N 44°25' E 008°47'0 0.0
2018-Apr-07 07:58N 44°25' E 008°47'0 0.0
2018-Apr-07 07:28N 44°25' E 008°47'0 0.4
2018-Apr-07 07:00N 44°25' E 008°46'2 4.2
2018-Apr-07 06:30N 44°24' E 008°44'1 1.0
2018-Apr-07 06:00N 44°23' E 008°44'3 5.9
2018-Apr-07 05:30N 44°20' E 008°43'5 9.1
2018-Apr-07 05:00N 44°16' E 008°45'5 9.8
2018-Apr-07 04:30N 44°12' E 008°48'510.9
2018-Apr-07 04:00N 44°07' E 008°51'611.0
2018-Apr-07 03:30N 44°02' E 008°55'611.3
2018-Apr-07 03:00N 43°56' E 008°57'1 2.6
2018-Apr-07 02:30N 43°55' E 008°57'5 9.6
2018-Apr-07 02:00N 43°50' E 008°55'510.8
2018-Apr-07 01:30N 43°47' E 008°50'510.8
2018-Apr-07 01:00N 43°43' E 008°44'510.7
2018-Apr-07 00:30N 43°40' E 008°39'510.7
2018-Apr-07 00:00N 43°36' E 008°33'510.8
2018-Apr-06 23:30N 43°33' E 008°27'510.7
2018-Apr-06 23:00N 43°30' E 008°21'510.6
2018-Apr-06 22:30N 43°26' E 008°16'510.6
2018-Apr-06 22:00N 43°23' E 008°10'510.9
2018-Apr-06 21:30N 43°19' E 008°05'611.0
2018-Apr-06 21:00N 43°16' E 007°59'511.0
2018-Apr-06 20:30N 43°12' E 007°53'611.0
2018-Apr-06 20:00N 43°09' E 007°47'611.2
2018-Apr-06 19:30N 43°05' E 007°41'611.8
2018-Apr-06 19:00N 43°01' E 007°35'1111.9
2018-Apr-06 18:07N 42°55' E 007°24'411.7
2018-Apr-06 17:47N 42°52' E 007°20'311.9
2018-Apr-06 17:30N 42°50' E 007°17'712.0
2018-Apr-06 16:54N 42°45' E 007°09'512.1
2018-Apr-06 16:30N 42°42' E 007°04'612.2
2018-Apr-06 16:00N 42°38' E 006°58'612.2
2018-Apr-06 15:30N 42°34' E 006°52'612.4
2018-Apr-06 15:00N 42°30' E 006°46'712.2
2018-Apr-06 14:25N 42°25' E 006°38'512.0
2018-Apr-06 14:00N 42°22' E 006°33'1011.9
2018-Apr-06 13:11N 42°16' E 006°23'19112.1
2018-Apr-05 21:21N 40°21' E 002°60'1012.8
2018-Apr-05 20:37N 40°14' E 002°51'113.2
2018-Apr-05 20:30N 40°13' E 002°49'713.0
2018-Apr-05 20:00N 40°09' E 002°43'612.9
2018-Apr-05 19:30N 40°04' E 002°37'8912.4
2018-Apr-05 12:17N 39°06' E 001°09'10812.1
2018-Apr-05 03:24N 37°39' W 000°12'612.5
2018-Apr-05 02:57N 37°35' W 000°16'612.6
2018-Apr-05 02:30N 37°30' W 000°20'913.0
2018-Apr-05 01:49N 37°24' W 000°29'612.9
2018-Apr-05 01:20N 37°21' W 000°35'512.6
2018-Apr-05 00:59N 37°18' W 000°40'612.4
2018-Apr-05 00:30N 37°15' W 000°46'612.3
2018-Apr-04 23:59N 37°11' W 000°52'712.3
2018-Apr-04 23:23N 37°06' W 000°60'512.5
2018-Apr-04 22:58N 37°03' W 001°05'20812.3
2018-Apr-04 06:07N 35°59' W 005°11'  

Dump ship's entire track history